createdAt,value
2022-10-01T00:02:12.009Z,19.10
2022-10-01T00:04:40.025Z,19.10
2022-10-01T00:07:10.895Z,19.10
2022-10-01T00:09:40.529Z,19.00
2022-10-01T00:12:08.623Z,19.00
2022-10-01T00:14:38.465Z,19.00
2022-10-01T00:17:06.508Z,19.00
2022-10-01T00:19:34.563Z,19.00
2022-10-01T00:22:02.588Z,19.00
2022-10-01T00:24:30.648Z,19.00
2022-10-01T00:27:00.509Z,19.00
2022-10-01T00:29:28.603Z,19.00
2022-10-01T00:31:57.315Z,19.00
2022-10-01T00:34:25.437Z,19.00
2022-10-01T00:36:53.445Z,19.00
2022-10-01T00:39:21.701Z,18.90
2022-10-01T00:41:49.918Z,18.90
2022-10-01T00:44:33.481Z,19.00
2022-10-01T00:47:10.515Z,18.90
2022-10-01T00:49:38.721Z,18.90
2022-10-01T00:52:08.010Z,18.90
2022-10-01T00:54:38.599Z,19.00
2022-10-01T00:57:06.870Z,18.90
2022-10-01T00:59:36.395Z,18.90
2022-10-01T01:02:04.462Z,18.90
2022-10-01T01:04:32.587Z,18.90
2022-10-01T01:07:01.884Z,18.90
2022-10-01T01:09:31.208Z,18.90
2022-10-01T01:12:02.972Z,18.90
2022-10-01T01:14:34.230Z,18.90
2022-10-01T01:17:08.687Z,18.90
2022-10-01T01:19:44.994Z,18.90
2022-10-01T01:22:13.467Z,18.90
2022-10-01T01:24:51.247Z,18.90
2022-10-01T01:27:31.453Z,18.80
2022-10-01T01:30:04.323Z,18.90
2022-10-01T01:32:34.342Z,18.80
2022-10-01T01:35:03.022Z,18.80
2022-10-01T01:37:33.704Z,18.80
2022-10-01T01:40:02.245Z,18.80
2022-10-01T01:42:31.655Z,18.80
2022-10-01T01:45:01.978Z,18.80
2022-10-01T01:47:32.799Z,18.80
2022-10-01T01:50:02.800Z,18.80
2022-10-01T01:52:30.921Z,18.80
2022-10-01T01:54:59.018Z,18.80
2022-10-01T01:57:27.422Z,18.80
2022-10-01T01:59:55.520Z,18.80
2022-10-01T02:02:26.660Z,18.80
2022-10-01T02:04:55.682Z,18.80
2022-10-01T02:07:54.914Z,18.80
2022-10-01T02:10:31.872Z,18.80
2022-10-01T02:13:08.352Z,18.70
2022-10-01T02:15:41.579Z,18.80
2022-10-01T02:18:13.709Z,18.80
2022-10-01T02:20:46.362Z,18.80
2022-10-01T02:23:16.313Z,18.80
2022-10-01T02:25:46.177Z,18.80
2022-10-01T02:28:15.333Z,18.70
2022-10-01T02:30:44.288Z,18.70
2022-10-01T02:33:15.026Z,18.70
2022-10-01T02:35:43.573Z,18.70
2022-10-01T02:38:11.750Z,18.70
2022-10-01T02:40:41.973Z,18.70
2022-10-01T02:43:11.820Z,18.70
2022-10-01T02:45:40.364Z,18.70
2022-10-01T02:48:09.254Z,18.70
2022-10-01T02:50:42.981Z,18.70
2022-10-01T02:53:12.249Z,18.70
2022-10-01T02:55:40.580Z,18.70
2022-10-01T02:58:08.667Z,18.70
2022-10-01T03:00:36.753Z,18.70
2022-10-01T03:03:04.959Z,18.70
2022-10-01T03:05:33.000Z,18.70
2022-10-01T03:08:02.685Z,18.70
2022-10-01T03:10:30.738Z,18.70
2022-10-01T03:13:00.151Z,18.70
2022-10-01T03:15:28.270Z,18.70
2022-10-01T03:17:56.893Z,18.70
2022-10-01T03:20:24.946Z,18.70
2022-10-01T03:22:53.012Z,18.70
2022-10-01T03:25:22.401Z,18.70
2022-10-01T03:27:53.783Z,18.60
2022-10-01T03:30:22.160Z,18.60
2022-10-01T03:32:50.193Z,18.60
2022-10-01T03:35:18.617Z,18.60
2022-10-01T03:37:47.677Z,18.60
2022-10-01T03:40:15.904Z,18.60
2022-10-01T03:42:45.325Z,18.60
2022-10-01T03:45:13.404Z,18.60
2022-10-01T03:47:41.494Z,18.60
2022-10-01T03:50:10.571Z,18.60
2022-10-01T03:52:38.577Z,18.60
2022-10-01T03:55:07.483Z,18.60
2022-10-01T03:57:35.537Z,18.60
2022-10-01T04:00:05.316Z,18.60
2022-10-01T04:02:39.690Z,18.60
2022-10-01T04:05:08.405Z,18.60
2022-10-01T04:07:36.435Z,18.60
2022-10-01T04:10:04.678Z,18.60
2022-10-01T04:12:32.946Z,18.60
2022-10-01T04:15:00.959Z,18.60
2022-10-01T04:17:30.365Z,18.60
2022-10-01T04:20:00.222Z,18.60
2022-10-01T04:22:28.321Z,18.60
2022-10-01T04:24:56.346Z,18.60
2022-10-01T04:27:24.392Z,18.60
2022-10-01T04:29:52.422Z,18.60
2022-10-01T04:32:22.214Z,18.60
2022-10-01T04:34:54.509Z,18.60
2022-10-01T04:37:22.631Z,18.60
2022-10-01T04:39:50.713Z,18.60
2022-10-01T04:42:18.783Z,18.50
2022-10-01T04:44:46.822Z,18.60
2022-10-01T04:47:14.868Z,18.60
2022-10-01T04:49:42.922Z,18.50
2022-10-01T04:52:12.314Z,18.60
2022-10-01T04:54:40.370Z,18.50
2022-10-01T04:57:08.404Z,18.50
2022-10-01T04:59:36.446Z,18.50
2022-10-01T05:02:04.495Z,18.50
2022-10-01T05:04:32.560Z,18.50
2022-10-01T05:07:00.613Z,18.50
2022-10-01T05:09:30.020Z,18.50
2022-10-01T05:11:58.057Z,18.50
2022-10-01T05:14:26.769Z,18.50
2022-10-01T05:16:54.815Z,18.50
2022-10-01T05:19:26.332Z,18.50
2022-10-01T05:21:56.066Z,18.50
2022-10-01T05:24:24.128Z,18.50
2022-10-01T05:26:54.492Z,18.50
2022-10-01T05:29:23.063Z,18.50
2022-10-01T05:31:51.136Z,18.50
2022-10-01T05:34:19.345Z,18.50
2022-10-01T05:36:47.369Z,18.50
2022-10-01T05:39:15.385Z,18.50
2022-10-01T05:41:43.436Z,18.50
2022-10-01T05:44:12.820Z,18.50
2022-10-01T05:46:41.607Z,18.50
2022-10-01T05:49:10.576Z,18.50
2022-10-01T05:51:38.608Z,18.50
2022-10-01T05:54:07.009Z,18.50
2022-10-01T05:56:35.192Z,18.50
2022-10-01T05:59:03.244Z,18.50
2022-10-01T06:01:33.015Z,18.50
2022-10-01T06:04:01.388Z,18.50
2022-10-01T06:06:29.522Z,18.50
2022-10-01T06:08:57.561Z,18.50
2022-10-01T06:11:26.852Z,18.40
2022-10-01T06:13:54.943Z,18.40
2022-10-01T06:16:23.013Z,18.50
2022-10-01T06:18:57.360Z,18.40
2022-10-01T06:21:25.704Z,18.40
2022-10-01T06:23:53.770Z,18.40
2022-10-01T06:26:21.899Z,18.40
2022-10-01T06:28:50.422Z,18.40
2022-10-01T06:31:18.578Z,18.40
2022-10-01T06:33:46.897Z,18.40
2022-10-01T06:36:16.300Z,18.40
2022-10-01T06:38:44.358Z,18.40
2022-10-01T06:41:12.756Z,18.40
2022-10-01T06:43:40.790Z,18.40
2022-10-01T06:46:08.887Z,18.40
2022-10-01T06:48:37.122Z,18.40
2022-10-01T06:51:05.790Z,18.40
2022-10-01T06:53:34.253Z,18.40
2022-10-01T06:56:05.420Z,18.40
2022-10-01T06:58:33.437Z,18.40
2022-10-01T07:01:02.115Z,18.40
2022-10-01T07:03:31.138Z,18.40
2022-10-01T07:06:03.323Z,18.40
2022-10-01T07:08:31.372Z,18.40
2022-10-01T07:11:04.989Z,18.40
2022-10-01T07:13:33.076Z,18.40
2022-10-01T07:16:03.189Z,18.40
2022-10-01T07:18:31.258Z,18.40
2022-10-01T07:20:59.331Z,18.40
2022-10-01T07:23:27.447Z,18.40
2022-10-01T07:25:55.486Z,18.40
2022-10-01T07:28:26.054Z,18.40
2022-10-01T07:30:59.494Z,18.40
2022-10-01T07:33:27.555Z,18.40
2022-10-01T07:35:55.618Z,18.40
2022-10-01T07:38:23.789Z,18.40
2022-10-01T07:40:52.746Z,18.40
2022-10-01T07:43:20.833Z,18.40
2022-10-01T07:45:52.422Z,18.40
2022-10-01T07:48:20.529Z,18.40
2022-10-01T07:50:48.611Z,18.40
2022-10-01T07:53:16.733Z,18.40
2022-10-01T07:55:44.906Z,18.40
2022-10-01T07:58:13.052Z,18.40
2022-10-01T08:00:41.101Z,18.40
2022-10-01T08:03:12.045Z,18.40
2022-10-01T08:05:41.986Z,18.40
2022-10-01T08:08:10.435Z,18.40
2022-10-01T08:10:39.118Z,18.40
2022-10-01T08:13:14.743Z,18.40
2022-10-01T08:15:43.115Z,18.40
2022-10-01T08:18:12.580Z,18.40
2022-10-01T08:20:40.755Z,18.40
2022-10-01T08:23:10.315Z,18.40
2022-10-01T08:25:38.543Z,18.40
2022-10-01T08:28:07.100Z,18.40
2022-10-01T08:30:35.532Z,18.40
2022-10-01T08:33:03.968Z,18.50
2022-10-01T08:35:33.919Z,18.40
2022-10-01T08:38:05.721Z,18.50
2022-10-01T08:40:36.632Z,18.50
2022-10-01T08:43:06.421Z,18.50
2022-10-01T08:45:37.711Z,18.50
2022-10-01T08:48:09.205Z,18.50
2022-10-01T08:50:42.026Z,18.50
2022-10-01T08:53:15.318Z,18.50
2022-10-01T08:55:43.389Z,18.60
2022-10-01T08:58:13.440Z,18.60
2022-10-01T09:00:43.073Z,18.60
2022-10-01T09:03:13.406Z,18.60
2022-10-01T09:05:49.093Z,18.70
2022-10-01T09:08:21.877Z,18.70
2022-10-01T09:10:53.169Z,18.70
2022-10-01T09:13:50.531Z,18.70
2022-10-01T09:16:21.660Z,18.70
2022-10-01T09:18:57.094Z,18.80
2022-10-01T09:21:29.528Z,18.80
2022-10-01T09:24:04.040Z,18.80
2022-10-01T09:26:32.102Z,18.70
2022-10-01T09:29:00.969Z,18.80
2022-10-01T09:31:30.399Z,18.80
2022-10-01T09:34:02.730Z,18.80
2022-10-01T09:36:36.076Z,18.80
2022-10-01T09:39:10.407Z,18.80
2022-10-01T09:41:38.824Z,18.80
2022-10-01T09:44:07.181Z,18.90
2022-10-01T09:46:35.614Z,18.80
2022-10-01T09:49:06.337Z,18.90
2022-10-01T09:51:40.215Z,18.80
2022-10-01T09:54:15.069Z,18.80
2022-10-01T09:56:43.935Z,18.80
2022-10-01T09:59:14.845Z,18.90
2022-10-01T10:01:44.794Z,18.80
2022-10-01T10:04:16.697Z,18.90
2022-10-01T10:06:49.374Z,18.80
2022-10-01T10:09:18.215Z,18.90
2022-10-01T10:11:46.321Z,18.80
2022-10-01T10:14:17.875Z,18.90
2022-10-01T10:16:47.221Z,18.90
2022-10-01T10:19:22.688Z,18.90
2022-10-01T10:21:53.338Z,18.90
2022-10-01T10:24:24.913Z,18.90
2022-10-01T10:26:55.298Z,18.90
2022-10-01T10:29:27.347Z,18.90
2022-10-01T10:31:55.653Z,18.90
2022-10-01T10:34:27.321Z,18.90
2022-10-01T10:36:59.462Z,18.90
2022-10-01T10:39:29.410Z,18.90
2022-10-01T10:41:57.865Z,18.90
2022-10-01T10:44:26.538Z,18.90
2022-10-01T10:46:55.301Z,18.90
2022-10-01T10:49:24.602Z,18.90
2022-10-01T10:51:53.917Z,18.90
2022-10-01T10:54:29.240Z,18.90
2022-10-01T10:57:02.410Z,18.90
2022-10-01T10:59:32.801Z,18.90
2022-10-01T11:02:02.190Z,18.90
2022-10-01T11:04:40.967Z,18.90
2022-10-01T11:07:09.130Z,18.90
2022-10-01T11:09:49.144Z,18.90
2022-10-01T11:12:23.199Z,18.90
2022-10-01T11:14:59.150Z,18.90
2022-10-01T11:17:49.863Z,18.90
2022-10-01T11:20:24.415Z,18.90
2022-10-01T11:22:58.908Z,18.90
2022-10-01T11:25:34.300Z,18.90
2022-10-01T11:28:07.629Z,18.90
2022-10-01T11:30:39.495Z,18.90
2022-10-01T11:33:11.892Z,18.90
2022-10-01T11:35:50.501Z,18.90
2022-10-01T11:38:40.390Z,18.80
2022-10-01T11:41:16.428Z,18.90
2022-10-01T11:43:45.263Z,18.80
2022-10-01T11:46:14.845Z,18.90
2022-10-01T11:48:44.250Z,18.90
2022-10-01T11:51:14.496Z,18.80
2022-10-01T11:53:45.438Z,18.90
2022-10-01T11:56:34.102Z,18.90
2022-10-01T11:59:03.649Z,18.90
2022-10-01T12:01:34.800Z,18.90
2022-10-01T12:04:10.283Z,18.90
2022-10-01T12:06:40.820Z,18.90
2022-10-01T12:09:14.067Z,18.90
2022-10-01T12:11:45.181Z,18.90
2022-10-01T12:14:16.620Z,18.90
2022-10-01T12:16:47.338Z,18.90
2022-10-01T12:19:17.529Z,18.90
2022-10-01T12:21:47.903Z,18.90
2022-10-01T12:24:17.437Z,18.90
2022-10-01T12:26:53.906Z,18.90
2022-10-01T12:29:23.928Z,18.90
2022-10-01T12:31:54.685Z,18.90
2022-10-01T12:34:28.058Z,18.90
2022-10-01T12:37:04.433Z,18.90
2022-10-01T12:39:40.412Z,18.90
2022-10-01T12:42:18.450Z,19.00
2022-10-01T12:44:56.521Z,18.90
2022-10-01T12:47:43.163Z,19.00
2022-10-01T12:50:22.855Z,19.00
2022-10-01T12:52:56.354Z,19.00
2022-10-01T12:55:35.241Z,19.00
2022-10-01T12:58:10.074Z,19.00
2022-10-01T13:00:40.875Z,19.00
2022-10-01T13:04:03.039Z,19.00
2022-10-01T13:06:37.211Z,19.00
2022-10-01T13:09:10.277Z,19.00
2022-10-01T13:11:46.660Z,19.00
2022-10-01T13:14:17.421Z,18.90
2022-10-01T13:16:47.621Z,18.90
2022-10-01T13:19:17.632Z,19.00
2022-10-01T13:21:56.596Z,19.00
2022-10-01T13:24:27.265Z,19.00
2022-10-01T13:26:58.665Z,19.00
2022-10-01T13:29:35.088Z,19.00
2022-10-01T13:32:03.826Z,19.10
2022-10-01T13:34:39.419Z,19.10
2022-10-01T13:37:15.015Z,19.10
2022-10-01T13:39:43.600Z,19.10
2022-10-01T13:42:17.358Z,19.20
2022-10-01T13:44:46.911Z,19.20
2022-10-01T13:47:16.468Z,19.20
2022-10-01T13:49:45.685Z,19.20
2022-10-01T13:52:20.461Z,19.30
2022-10-01T13:54:50.161Z,19.30
2022-10-01T13:57:28.819Z,19.30
2022-10-01T14:00:02.538Z,19.30
2022-10-01T14:02:37.759Z,19.40
2022-10-01T14:05:29.170Z,19.40
2022-10-01T14:07:59.833Z,19.40
2022-10-01T14:11:01.513Z,19.40
2022-10-01T14:13:47.261Z,19.40
2022-10-01T14:16:17.878Z,19.40
2022-10-01T14:18:47.203Z,19.50
2022-10-01T14:21:23.616Z,19.50
2022-10-01T14:23:54.445Z,19.50
2022-10-01T14:26:24.528Z,19.60
2022-10-01T14:28:58.483Z,19.60
2022-10-01T14:31:32.766Z,19.60
2022-10-01T14:34:08.302Z,19.60
2022-10-01T14:36:37.715Z,19.50
2022-10-01T14:39:12.526Z,19.60
2022-10-01T14:41:40.566Z,19.60
2022-10-01T14:44:19.466Z,19.50
2022-10-01T14:46:48.926Z,19.60
2022-10-01T14:49:21.454Z,19.50
2022-10-01T14:51:54.482Z,19.50
2022-10-01T14:54:22.687Z,19.50
2022-10-01T14:56:50.843Z,19.50
2022-10-01T14:59:22.781Z,19.50
2022-10-01T15:02:00.629Z,19.50
2022-10-01T15:04:28.809Z,19.50
2022-10-01T15:07:04.627Z,19.50
2022-10-01T15:09:34.620Z,19.50
2022-10-01T15:12:03.192Z,19.50
2022-10-01T15:14:32.062Z,19.50
2022-10-01T15:17:06.444Z,19.50
2022-10-01T15:19:34.602Z,19.50
2022-10-01T15:22:02.676Z,19.50
2022-10-01T15:24:33.627Z,19.50
2022-10-01T15:27:01.938Z,19.50
2022-10-01T15:29:30.076Z,19.50
2022-10-01T15:31:58.236Z,19.40
2022-10-01T15:34:28.100Z,19.40
2022-10-01T15:36:56.176Z,19.40
2022-10-01T15:39:30.352Z,19.40
2022-10-01T15:41:58.622Z,19.40
2022-10-01T15:44:45.881Z,19.40
2022-10-01T15:47:27.491Z,19.40
2022-10-01T15:50:19.360Z,19.40
2022-10-01T15:52:50.915Z,19.40
2022-10-01T15:55:23.858Z,19.40
2022-10-01T15:57:53.734Z,19.40
2022-10-01T16:00:22.552Z,19.40
2022-10-01T16:02:50.645Z,19.40
2022-10-01T16:05:22.785Z,19.40
2022-10-01T16:07:54.367Z,19.40
2022-10-01T16:10:31.252Z,19.30
2022-10-01T16:12:59.893Z,19.30
2022-10-01T16:15:28.493Z,19.30
2022-10-01T16:17:57.383Z,19.30
2022-10-01T16:20:36.147Z,19.30
2022-10-01T16:23:41.906Z,19.30
2022-10-01T16:26:40.058Z,19.30
2022-10-01T16:29:23.228Z,19.30
2022-10-01T16:31:51.397Z,19.30
2022-10-01T16:34:20.361Z,19.30
2022-10-01T16:36:50.277Z,19.30
2022-10-01T16:39:18.388Z,19.30
2022-10-01T16:41:56.807Z,19.30
2022-10-01T16:44:35.575Z,19.30
2022-10-01T16:47:03.613Z,19.30
2022-10-01T16:49:31.684Z,19.20
2022-10-01T16:52:01.205Z,19.20
2022-10-01T16:54:29.663Z,19.30
2022-10-01T16:56:59.221Z,19.20
2022-10-01T16:59:27.448Z,19.30
2022-10-01T17:01:56.903Z,19.30
2022-10-01T17:04:29.219Z,19.20
2022-10-01T17:07:01.283Z,19.30
2022-10-01T17:09:29.328Z,19.20
2022-10-01T17:11:57.976Z,19.20
2022-10-01T17:14:26.025Z,19.20
2022-10-01T17:16:54.191Z,19.20
2022-10-01T17:19:22.923Z,19.20
2022-10-01T17:21:51.063Z,19.20
2022-10-01T17:24:20.459Z,19.20
2022-10-01T17:26:48.647Z,19.20
2022-10-01T17:29:16.724Z,19.20
2022-10-01T17:31:47.881Z,19.20
2022-10-01T17:34:16.024Z,19.20
2022-10-01T17:36:45.652Z,19.20
2022-10-01T17:39:13.774Z,19.20
2022-10-01T17:41:43.194Z,19.20
2022-10-01T17:44:13.626Z,19.20
2022-10-01T17:46:41.671Z,19.20
2022-10-01T17:49:10.317Z,19.20
2022-10-01T17:51:38.414Z,19.10
2022-10-01T17:54:06.559Z,19.10
2022-10-01T17:56:34.741Z,19.20
2022-10-01T17:59:04.287Z,19.20
2022-10-01T18:01:32.553Z,19.10
2022-10-01T18:04:00.845Z,19.10
2022-10-01T18:06:29.545Z,19.10
2022-10-01T18:08:57.624Z,19.10
2022-10-01T18:11:25.862Z,19.10
2022-10-01T18:13:53.998Z,19.10
2022-10-01T18:16:23.530Z,19.10
2022-10-01T18:21:43.790Z,19.10
2022-10-01T18:24:11.901Z,19.10
2022-10-01T18:26:39.987Z,19.10
2022-10-01T18:29:08.119Z,19.10
2022-10-01T18:31:38.170Z,19.10
2022-10-01T18:34:12.522Z,19.10
2022-10-01T18:36:43.073Z,19.10
2022-10-01T18:39:15.288Z,19.10
2022-10-01T18:41:43.453Z,19.10
2022-10-01T18:44:11.611Z,19.10
2022-10-01T18:46:52.916Z,19.10
2022-10-01T18:49:28.865Z,19.10
2022-10-01T18:52:04.293Z,19.10
2022-10-01T18:54:43.666Z,19.10
2022-10-01T18:57:17.888Z,19.10
2022-10-01T19:00:03.290Z,19.10
2022-10-01T19:02:50.071Z,19.10
2022-10-01T19:05:41.306Z,19.10
2022-10-01T19:08:14.909Z,19.10
2022-10-01T19:10:44.741Z,19.10
2022-10-01T19:13:16.060Z,19.10
2022-10-01T19:15:52.097Z,19.10
2022-10-01T19:18:30.892Z,19.10
2022-10-01T19:21:04.562Z,19.10
2022-10-01T19:24:05.123Z,19.10
2022-10-01T19:26:36.223Z,19.10
2022-10-01T19:29:12.548Z,19.10
2022-10-01T19:31:45.956Z,19.10
2022-10-01T19:34:18.017Z,19.10
2022-10-01T19:36:49.774Z,19.10
2022-10-01T19:39:21.287Z,19.10
2022-10-01T19:41:52.109Z,19.10
2022-10-01T19:44:21.883Z,19.10
2022-10-01T19:46:50.965Z,19.10
2022-10-01T19:49:21.936Z,19.10
2022-10-01T19:51:53.059Z,19.10
2022-10-01T19:54:21.866Z,19.10
2022-10-01T19:56:52.679Z,19.10
2022-10-01T19:59:21.476Z,19.10
2022-10-01T20:01:53.034Z,19.10
2022-10-01T20:04:26.512Z,19.10
2022-10-01T20:06:56.132Z,19.10
2022-10-01T20:09:26.479Z,19.10
2022-10-01T20:11:56.761Z,19.10
2022-10-01T20:14:48.070Z,19.10
2022-10-01T20:17:21.296Z,19.10
2022-10-01T20:19:55.633Z,19.10
2022-10-01T20:22:26.486Z,19.10
2022-10-01T20:24:57.136Z,19.10
2022-10-01T20:27:31.055Z,19.10
2022-10-01T20:30:04.294Z,19.20
2022-10-01T20:32:34.604Z,19.20
2022-10-01T20:35:13.104Z,19.20
2022-10-01T20:37:58.290Z,19.20
2022-10-01T20:40:27.992Z,19.30
2022-10-01T20:43:03.780Z,19.30
2022-10-01T20:45:33.971Z,19.30
2022-10-01T20:48:05.598Z,19.30
2022-10-01T20:50:36.063Z,19.30
2022-10-01T20:53:21.325Z,19.40
2022-10-01T20:55:51.576Z,19.40
2022-10-01T20:58:23.449Z,19.40
2022-10-01T21:00:53.762Z,19.40
2022-10-01T21:03:25.151Z,19.40
2022-10-01T21:05:55.494Z,19.50
2022-10-01T21:08:38.884Z,19.50
2022-10-01T21:11:09.216Z,19.50
2022-10-01T21:13:40.343Z,19.50
2022-10-01T21:16:38.273Z,19.60
2022-10-01T21:19:14.137Z,19.60
2022-10-01T21:21:46.233Z,19.60
2022-10-01T21:24:24.027Z,19.60
2022-10-01T21:26:56.938Z,19.60
2022-10-01T21:29:41.346Z,19.60
2022-10-01T21:32:15.550Z,19.60
2022-10-01T21:34:49.618Z,19.60
2022-10-01T21:37:22.554Z,19.60
2022-10-01T21:39:54.320Z,19.70
2022-10-01T21:42:24.439Z,19.70
2022-10-01T21:45:23.169Z,19.70
2022-10-01T21:48:00.906Z,19.70
2022-10-01T21:50:35.483Z,19.70
2022-10-01T21:53:15.089Z,19.80
2022-10-01T21:55:58.046Z,19.80
2022-10-01T21:58:33.305Z,19.80
2022-10-01T22:01:09.572Z,19.80
2022-10-01T22:03:40.166Z,19.80
2022-10-01T22:06:12.154Z,19.80
2022-10-01T22:08:51.019Z,19.80
2022-10-01T22:11:20.683Z,19.80
2022-10-01T22:13:51.405Z,19.80
2022-10-01T22:16:19.517Z,19.80
2022-10-01T22:18:49.226Z,19.80
2022-10-01T22:21:20.999Z,19.80
2022-10-01T22:23:53.858Z,19.80
2022-10-01T22:26:22.862Z,19.80
2022-10-01T22:28:51.776Z,19.80
2022-10-01T22:31:22.758Z,19.80
2022-10-01T22:33:53.631Z,19.80
2022-10-01T22:36:24.552Z,19.80
2022-10-01T22:38:54.922Z,19.80
2022-10-01T22:41:25.937Z,19.80
2022-10-01T22:43:54.040Z,19.80
2022-10-01T22:46:32.505Z,19.80
2022-10-01T22:49:02.118Z,19.80
2022-10-01T22:51:37.405Z,19.80
2022-10-01T22:54:21.597Z,19.80
2022-10-01T22:56:55.203Z,19.80
2022-10-01T22:59:26.614Z,19.80
2022-10-01T23:01:59.051Z,19.70
2022-10-01T23:04:46.231Z,19.80
2022-10-01T23:07:18.838Z,19.70
2022-10-01T23:09:51.127Z,19.70
2022-10-01T23:12:23.626Z,19.70
2022-10-01T23:14:57.527Z,19.70
2022-10-01T23:17:28.474Z,19.70
2022-10-01T23:20:02.016Z,19.70
2022-10-01T23:22:39.075Z,19.70
2022-10-01T23:25:16.691Z,19.70
2022-10-01T23:27:53.526Z,19.70
2022-10-01T23:30:21.649Z,19.70
2022-10-01T23:33:14.240Z,19.60
2022-10-01T23:35:47.187Z,19.60
2022-10-01T23:38:27.531Z,19.60
2022-10-01T23:40:57.811Z,19.60
2022-10-01T23:43:28.340Z,19.60
2022-10-01T23:45:58.082Z,19.60
2022-10-01T23:48:29.070Z,19.60
2022-10-01T23:51:03.465Z,19.60
2022-10-01T23:53:34.173Z,19.60
2022-10-01T23:56:22.760Z,19.50
2022-10-01T23:58:54.207Z,19.60
